createdAt,value
2023-01-18T00:00:40.156Z,13.13
2023-01-18T00:03:11.153Z,11.02
2023-01-18T00:05:41.060Z,15.73
2023-01-18T00:08:10.068Z,15.75
2023-01-18T00:10:37.142Z,19.67
2023-01-18T00:13:04.472Z,29.48
2023-01-18T00:15:32.225Z,22.73
2023-01-18T00:17:58.960Z,22.48
2023-01-18T00:20:27.167Z,15.75
2023-01-18T00:22:53.955Z,17.83
2023-01-18T00:25:23.191Z,12.65
2023-01-18T00:27:52.311Z,13.18
2023-01-18T00:30:21.779Z,13.85
2023-01-18T00:32:49.420Z,15.65
2023-01-18T00:35:16.140Z,12.02
2023-01-18T00:37:43.054Z,10.88
2023-01-18T00:40:10.664Z,9.40
2023-01-18T00:42:56.108Z,9.88
2023-01-18T00:45:23.107Z,14.35
2023-01-18T00:47:49.808Z,14.27
2023-01-18T00:50:16.686Z,16.55
2023-01-18T00:52:46.547Z,13.65
2023-01-18T00:55:15.124Z,11.30
2023-01-18T00:57:42.568Z,10.15
2023-01-18T01:00:12.145Z,8.27
2023-01-18T01:02:42.345Z,9.52
2023-01-18T01:05:38.440Z,8.52
2023-01-18T01:08:08.799Z,11.07
2023-01-18T01:10:35.621Z,11.18
2023-01-18T01:13:20.885Z,8.55
2023-01-18T01:16:06.299Z,9.23
2023-01-18T01:18:51.773Z,9.85
2023-01-18T01:21:37.043Z,9.88
2023-01-18T01:24:22.263Z,9.95
2023-01-18T01:26:48.907Z,11.10
2023-01-18T01:29:15.979Z,10.07
2023-01-18T01:31:42.983Z,9.93
2023-01-18T01:34:10.001Z,7.97
2023-01-18T01:36:37.082Z,11.15
2023-01-18T01:39:04.345Z,10.65
2023-01-18T01:41:33.856Z,10.82
2023-01-18T01:44:28.150Z,12.88
2023-01-18T01:47:02.788Z,16.73
2023-01-18T01:49:36.017Z,14.77
2023-01-18T01:52:06.136Z,10.95
2023-01-18T01:54:45.728Z,10.38
2023-01-18T01:57:22.771Z,12.38
2023-01-18T02:00:09.537Z,9.05
2023-01-18T02:02:42.338Z,9.23
2023-01-18T02:05:12.609Z,9.70
2023-01-18T02:07:39.834Z,9.68
2023-01-18T02:10:07.148Z,9.90
2023-01-18T02:12:35.598Z,15.35
2023-01-18T02:15:03.981Z,11.80
2023-01-18T02:17:48.413Z,12.60
2023-01-18T02:20:46.536Z,8.93
2023-01-18T02:23:32.592Z,11.65
2023-01-18T02:26:12.347Z,10.70
2023-01-18T02:28:41.254Z,12.23
2023-01-18T02:31:18.108Z,8.63
2023-01-18T02:34:13.555Z,12.45
2023-01-18T02:36:55.423Z,12.57
2023-01-18T02:39:31.626Z,8.73
2023-01-18T02:42:26.655Z,10.18
2023-01-18T02:45:12.344Z,9.02
2023-01-18T02:47:40.689Z,9.13
2023-01-18T02:50:07.981Z,14.68
2023-01-18T02:52:50.881Z,13.82
2023-01-18T02:55:37.813Z,13.70
2023-01-18T02:58:21.809Z,13.18
2023-01-18T03:00:55.127Z,11.15
2023-01-18T03:03:24.468Z,9.55
2023-01-18T03:05:57.472Z,9.98
2023-01-18T03:08:36.512Z,13.85
2023-01-18T03:11:09.300Z,12.55
2023-01-18T03:16:57.843Z,20.23
2023-01-18T03:20:08.690Z,13.90
2023-01-18T03:23:21.192Z,11.93
2023-01-18T03:25:54.766Z,13.23
2023-01-18T03:28:45.228Z,12.65
2023-01-18T03:31:34.284Z,14.65
2023-01-18T03:34:19.321Z,13.90
2023-01-18T03:36:49.043Z,13.18
2023-01-18T03:39:48.497Z,14.95
2023-01-18T03:42:30.203Z,12.75
2023-01-18T03:45:18.656Z,15.63
2023-01-18T03:47:50.278Z,15.00
2023-01-18T03:50:30.102Z,14.40
2023-01-18T03:53:02.064Z,13.10
2023-01-18T03:55:41.422Z,10.07
2023-01-18T03:58:13.083Z,11.20
2023-01-18T04:00:40.957Z,16.75
2023-01-18T04:03:07.782Z,10.82
2023-01-18T04:05:35.284Z,11.85
2023-01-18T04:08:02.252Z,13.27
2023-01-18T04:10:29.148Z,12.85
2023-01-18T04:12:56.395Z,14.82
2023-01-18T04:15:23.541Z,14.00
2023-01-18T04:17:53.243Z,13.10
2023-01-18T04:20:19.981Z,13.88
2023-01-18T04:22:51.855Z,17.15
2023-01-18T04:25:19.353Z,13.70
2023-01-18T04:27:46.400Z,19.10
2023-01-18T04:30:13.429Z,14.55
2023-01-18T04:32:42.650Z,16.73
2023-01-18T04:35:10.212Z,12.30
2023-01-18T04:37:38.160Z,11.27
2023-01-18T04:40:06.392Z,11.35
2023-01-18T04:42:33.443Z,17.88
2023-01-18T04:45:00.254Z,10.07
2023-01-18T04:47:34.255Z,11.25
2023-01-18T04:50:01.075Z,12.50
2023-01-18T04:52:32.120Z,14.48
2023-01-18T04:54:58.913Z,11.15
2023-01-18T04:57:25.569Z,16.40
2023-01-18T04:59:52.433Z,12.52
2023-01-18T05:02:19.417Z,12.07
2023-01-18T05:04:46.211Z,14.82
2023-01-18T05:07:13.048Z,15.82
2023-01-18T05:09:39.723Z,17.75
2023-01-18T05:12:06.655Z,17.58
2023-01-18T05:14:33.597Z,17.42
2023-01-18T05:17:00.355Z,17.15
2023-01-18T05:19:30.571Z,13.45
2023-01-18T05:21:57.307Z,12.02
2023-01-18T05:24:24.125Z,19.73
2023-01-18T05:26:50.814Z,15.75
2023-01-18T05:29:17.981Z,11.23
2023-01-18T05:31:44.853Z,13.65
2023-01-18T05:34:11.625Z,16.65
2023-01-18T05:36:38.509Z,19.35
2023-01-18T05:39:05.624Z,18.67
2023-01-18T05:41:32.377Z,18.75
2023-01-18T05:43:59.084Z,26.38
2023-01-18T05:46:26.042Z,23.20
2023-01-18T05:48:59.269Z,19.00
2023-01-18T05:51:28.890Z,19.80
2023-01-18T05:53:55.828Z,18.23
2023-01-18T05:56:23.438Z,17.85
2023-01-18T05:58:50.187Z,15.07
2023-01-18T06:01:17.014Z,20.30
2023-01-18T06:03:43.928Z,21.25
2023-01-18T06:06:10.768Z,25.02
2023-01-18T06:08:37.680Z,18.50
2023-01-18T06:11:04.737Z,15.80
2023-01-18T06:13:32.862Z,15.70
2023-01-18T06:16:00.497Z,15.38
2023-01-18T06:18:29.244Z,14.48
2023-01-18T06:20:59.654Z,13.65
2023-01-18T06:23:28.263Z,13.35
2023-01-18T06:25:55.154Z,12.63
2023-01-18T06:28:22.679Z,11.55
2023-01-18T06:30:52.663Z,15.70
2023-01-18T06:33:19.653Z,18.92
2023-01-18T06:35:46.368Z,16.63
2023-01-18T06:38:13.988Z,14.60
2023-01-18T06:40:40.656Z,14.63
2023-01-18T06:43:08.924Z,12.15
2023-01-18T06:45:35.805Z,15.02
2023-01-18T06:48:02.749Z,12.23
2023-01-18T06:50:29.538Z,12.68
2023-01-18T06:52:56.510Z,13.70
2023-01-18T06:55:26.522Z,14.93
2023-01-18T06:57:54.874Z,13.40
2023-01-18T07:00:22.385Z,14.50
2023-01-18T07:02:51.885Z,15.68
2023-01-18T07:05:18.706Z,23.85
2023-01-18T07:07:48.148Z,19.50
2023-01-18T07:10:16.608Z,16.20
2023-01-18T07:12:47.311Z,18.13
2023-01-18T07:15:21.625Z,17.73
2023-01-18T07:17:50.376Z,16.02
2023-01-18T07:20:17.497Z,18.65
2023-01-18T07:22:44.229Z,16.35
2023-01-18T07:25:13.403Z,12.68
2023-01-18T07:27:43.215Z,15.55
2023-01-18T07:30:13.324Z,16.33
2023-01-18T07:32:45.050Z,12.77
2023-01-18T07:35:11.783Z,18.60
2023-01-18T07:37:38.745Z,19.55
2023-01-18T07:40:06.121Z,15.35
2023-01-18T07:42:32.988Z,18.23
2023-01-18T07:44:59.723Z,11.00
2023-01-18T07:47:26.376Z,17.48
2023-01-18T07:49:53.019Z,16.95
2023-01-18T07:52:19.732Z,17.08
2023-01-18T07:54:46.424Z,24.20
2023-01-18T07:57:13.214Z,17.63
2023-01-18T07:59:39.878Z,20.30
2023-01-18T08:02:08.762Z,18.23
2023-01-18T08:04:35.534Z,12.65
2023-01-18T08:07:02.207Z,16.95
2023-01-18T08:09:29.028Z,11.93
2023-01-18T08:11:56.085Z,13.48
2023-01-18T08:14:22.812Z,11.35
2023-01-18T08:16:49.502Z,12.02
2023-01-18T08:19:16.693Z,13.80
2023-01-18T08:21:45.149Z,12.10
2023-01-18T08:24:13.584Z,12.57
2023-01-18T08:26:40.254Z,15.57
2023-01-18T08:29:10.065Z,27.10
2023-01-18T08:31:37.010Z,22.40
2023-01-18T08:34:03.842Z,26.42
2023-01-18T08:36:31.754Z,31.90
2023-01-18T08:38:58.541Z,24.30
2023-01-18T08:41:30.785Z,30.90
2023-01-18T08:43:59.120Z,23.38
2023-01-18T08:46:25.896Z,19.58
2023-01-18T08:48:54.828Z,16.73
2023-01-18T08:51:23.269Z,19.38
2023-01-18T08:53:56.543Z,17.83
2023-01-18T08:56:23.341Z,11.82
2023-01-18T08:58:52.145Z,13.90
2023-01-18T09:01:19.236Z,21.75
2023-01-18T09:03:47.988Z,13.75
2023-01-18T09:06:16.793Z,13.23
2023-01-18T09:08:46.324Z,16.15
2023-01-18T09:11:14.910Z,12.13
2023-01-18T09:13:58.434Z,16.00
2023-01-18T09:16:26.460Z,13.90
2023-01-18T09:18:55.318Z,13.15
2023-01-18T09:21:22.078Z,14.05
2023-01-18T09:23:49.501Z,14.43
2023-01-18T09:26:17.106Z,12.07
2023-01-18T09:28:44.931Z,19.17
2023-01-18T09:31:12.347Z,16.10
2023-01-18T09:33:41.213Z,13.35
2023-01-18T09:36:13.099Z,13.95
2023-01-18T09:38:41.720Z,14.93
2023-01-18T09:41:27.107Z,12.13
2023-01-18T09:44:01.260Z,13.93
2023-01-18T09:46:28.126Z,13.43
2023-01-18T09:49:03.627Z,15.82
2023-01-18T09:51:34.572Z,12.00
2023-01-18T09:54:25.655Z,13.15
2023-01-18T09:57:12.233Z,10.63
2023-01-18T09:59:42.085Z,15.13
2023-01-18T10:02:18.628Z,11.70
2023-01-18T10:04:49.096Z,13.77
2023-01-18T10:07:17.414Z,15.65
2023-01-18T10:09:54.587Z,15.13
2023-01-18T10:12:47.320Z,11.57
2023-01-18T10:15:31.820Z,14.30
2023-01-18T10:18:00.675Z,11.95
2023-01-18T10:20:42.608Z,15.23
2023-01-18T10:23:32.268Z,21.50
2023-01-18T10:26:06.925Z,12.85
2023-01-18T10:28:50.619Z,10.32
2023-01-18T10:31:23.511Z,17.27
2023-01-18T10:33:55.534Z,10.35
2023-01-18T10:36:41.838Z,11.07
2023-01-18T10:39:37.307Z,12.20
2023-01-18T10:42:09.661Z,10.18
2023-01-18T10:44:37.276Z,12.18
2023-01-18T10:47:04.754Z,14.90
2023-01-18T10:49:40.851Z,7.72
2023-01-18T10:52:17.777Z,11.80
2023-01-18T10:55:01.873Z,15.80
2023-01-18T10:57:50.407Z,13.13
2023-01-18T11:00:27.620Z,14.90
2023-01-18T11:02:55.839Z,13.38
2023-01-18T11:05:30.146Z,13.25
2023-01-18T11:08:32.622Z,18.50
2023-01-18T11:11:01.029Z,14.87
2023-01-18T11:13:44.051Z,11.70
2023-01-18T11:16:20.896Z,13.45
2023-01-18T11:19:19.060Z,15.23
2023-01-18T11:21:51.830Z,12.80
2023-01-18T11:24:24.747Z,13.82
2023-01-18T11:29:22.154Z,12.18
2023-01-18T11:31:50.675Z,8.60
2023-01-18T11:34:31.340Z,8.82
2023-01-18T11:37:00.613Z,12.32
2023-01-18T11:39:29.009Z,7.07
2023-01-18T11:42:22.706Z,9.75
2023-01-18T11:44:55.749Z,13.50
2023-01-18T11:48:04.171Z,11.35
2023-01-18T11:50:34.662Z,7.25
2023-01-18T11:53:26.869Z,8.50
2023-01-18T11:56:05.788Z,8.37
2023-01-18T11:58:34.627Z,13.15
2023-01-18T12:01:23.173Z,7.10
2023-01-18T12:04:16.194Z,9.10
2023-01-18T12:09:45.393Z,9.65
2023-01-18T12:12:33.345Z,9.13
2023-01-18T12:15:08.856Z,8.85
2023-01-18T12:18:11.528Z,8.57
2023-01-18T12:20:58.374Z,10.05
2023-01-18T12:23:55.392Z,7.35
2023-01-18T12:26:40.675Z,8.05
2023-01-18T12:29:40.688Z,10.93
2023-01-18T12:32:34.793Z,13.25
2023-01-18T12:35:24.154Z,12.52
2023-01-18T12:38:05.295Z,6.55
2023-01-18T12:40:50.945Z,12.00
2023-01-18T12:43:38.439Z,5.95
2023-01-18T12:46:13.729Z,8.20
2023-01-18T12:48:54.718Z,10.88
2023-01-18T12:51:24.295Z,14.05
2023-01-18T12:53:58.801Z,9.32
2023-01-18T12:56:48.455Z,10.25
2023-01-18T12:59:30.425Z,6.18
2023-01-18T13:02:23.102Z,6.50
2023-01-18T13:05:10.770Z,7.90
2023-01-18T13:07:44.248Z,6.97
2023-01-18T13:10:22.752Z,5.40
2023-01-18T13:12:51.226Z,8.05
2023-01-18T13:15:45.318Z,6.97
2023-01-18T13:18:27.582Z,4.93
2023-01-18T13:21:10.112Z,4.75
2023-01-18T13:23:49.533Z,9.10
2023-01-18T13:26:31.233Z,6.70
2023-01-18T13:29:13.979Z,4.95
2023-01-18T13:34:23.043Z,5.70
2023-01-18T13:36:49.849Z,5.47
2023-01-18T13:39:20.515Z,6.05
2023-01-18T13:42:08.076Z,9.60
2023-01-18T13:44:45.843Z,7.32
2023-01-18T13:47:45.862Z,5.43
2023-01-18T13:50:31.519Z,3.28
2023-01-18T13:53:13.557Z,6.35
2023-01-18T13:56:04.874Z,7.43
2023-01-18T13:58:33.797Z,7.32
2023-01-18T14:01:03.818Z,5.35
2023-01-18T14:03:39.276Z,9.45
2023-01-18T14:06:13.011Z,8.38
2023-01-18T14:08:48.616Z,7.43
2023-01-18T14:11:45.948Z,6.28
2023-01-18T14:14:16.170Z,6.70
2023-01-18T14:17:11.847Z,5.47
2023-01-18T14:20:04.152Z,5.72
2023-01-18T14:23:04.301Z,6.18
2023-01-18T14:25:52.498Z,3.53
2023-01-18T14:28:58.375Z,5.25
2023-01-18T14:31:31.452Z,5.68
2023-01-18T14:33:58.379Z,6.15
2023-01-18T14:36:27.897Z,5.13
2023-01-18T14:39:16.228Z,9.48
2023-01-18T14:41:47.792Z,4.40
2023-01-18T14:44:56.650Z,7.47
2023-01-18T14:47:27.013Z,7.63
2023-01-18T14:49:56.048Z,6.45
2023-01-18T14:52:28.946Z,4.18
2023-01-18T14:54:56.098Z,8.93
2023-01-18T14:57:24.067Z,6.43
2023-01-18T14:59:56.557Z,8.60
2023-01-18T15:02:29.340Z,5.50
2023-01-18T15:05:16.660Z,7.22
2023-01-18T15:07:50.084Z,7.80
2023-01-18T15:10:18.645Z,10.68
2023-01-18T15:12:49.293Z,5.75
2023-01-18T15:15:40.340Z,7.00
2023-01-18T15:18:11.020Z,3.08
2023-01-18T15:20:48.239Z,8.10
2023-01-18T15:23:15.096Z,9.55
2023-01-18T15:25:41.876Z,5.15
2023-01-18T15:28:22.963Z,7.97
2023-01-18T15:30:56.079Z,6.35
2023-01-18T15:33:25.625Z,6.72
2023-01-18T15:35:59.628Z,5.15
2023-01-18T15:38:26.880Z,8.70
2023-01-18T15:41:05.223Z,4.97
2023-01-18T15:43:36.014Z,6.18
2023-01-18T15:46:07.260Z,7.47
2023-01-18T15:48:44.971Z,7.15
2023-01-18T15:51:11.949Z,12.52
2023-01-18T15:53:52.403Z,8.32
2023-01-18T15:56:23.952Z,6.68
2023-01-18T15:58:56.273Z,11.05
2023-01-18T16:01:28.020Z,4.13
2023-01-18T16:03:58.826Z,5.85
2023-01-18T16:06:26.384Z,7.25
2023-01-18T16:09:02.192Z,9.00
2023-01-18T16:11:52.708Z,6.43
2023-01-18T16:14:31.710Z,8.50
2023-01-18T16:17:08.205Z,6.18
2023-01-18T16:19:44.413Z,13.50
2023-01-18T16:22:20.948Z,20.48
2023-01-18T16:24:50.872Z,16.10
2023-01-18T16:27:20.312Z,18.52
2023-01-18T16:29:49.911Z,8.68
2023-01-18T16:32:25.863Z,7.80
2023-01-18T16:34:54.761Z,7.50
2023-01-18T16:37:22.780Z,5.82
2023-01-18T16:39:50.803Z,10.27
2023-01-18T16:42:19.842Z,12.40
2023-01-18T16:44:49.163Z,10.57
2023-01-18T16:47:18.200Z,12.57
2023-01-18T16:49:45.375Z,6.75
2023-01-18T16:52:13.303Z,6.88
2023-01-18T16:54:44.856Z,9.30
2023-01-18T16:57:20.498Z,9.07
2023-01-18T16:59:47.530Z,7.80
2023-01-18T17:02:14.589Z,6.88
2023-01-18T17:04:42.748Z,8.68
2023-01-18T17:07:10.424Z,8.90
2023-01-18T17:09:47.921Z,6.60
2023-01-18T17:12:15.488Z,6.07
2023-01-18T17:14:42.194Z,6.47
2023-01-18T17:17:10.174Z,5.70
2023-01-18T17:19:38.233Z,9.25
2023-01-18T17:22:06.628Z,7.43
2023-01-18T17:24:33.485Z,7.82
2023-01-18T17:27:01.351Z,5.53
2023-01-18T17:29:28.753Z,7.70
2023-01-18T17:31:55.700Z,6.65
2023-01-18T17:34:28.089Z,6.43
2023-01-18T17:36:59.830Z,12.48
2023-01-18T17:39:37.418Z,13.50
2023-01-18T17:42:22.346Z,9.27
2023-01-18T17:45:02.263Z,12.45
2023-01-18T17:47:30.482Z,8.48
2023-01-18T17:49:57.296Z,10.05
2023-01-18T17:52:24.651Z,8.68
2023-01-18T17:54:51.512Z,11.40
2023-01-18T17:57:18.552Z,8.63
2023-01-18T17:59:45.409Z,13.27
2023-01-18T18:02:12.280Z,8.07
2023-01-18T18:04:39.217Z,8.63
2023-01-18T18:07:05.998Z,12.18
2023-01-18T18:09:38.249Z,9.15
2023-01-18T18:12:05.999Z,8.40
2023-01-18T18:14:34.340Z,5.50
2023-01-18T18:17:05.491Z,8.10
2023-01-18T18:19:32.840Z,5.75
2023-01-18T18:22:00.950Z,11.90
2023-01-18T18:24:27.784Z,10.52
2023-01-18T18:26:54.563Z,7.78
2023-01-18T18:29:21.363Z,10.82
2023-01-18T18:31:48.113Z,10.18
2023-01-18T18:34:14.980Z,10.48
2023-01-18T18:36:41.902Z,10.70
2023-01-18T18:39:09.482Z,9.63
2023-01-18T18:41:36.267Z,8.80
2023-01-18T18:44:03.192Z,6.57
2023-01-18T18:46:30.231Z,8.30
2023-01-18T18:48:57.481Z,10.82
2023-01-18T18:51:25.275Z,15.73
2023-01-18T18:53:52.287Z,16.42
2023-01-18T18:56:19.113Z,16.70
2023-01-18T18:59:05.663Z,9.60
2023-01-18T19:01:32.645Z,15.77
2023-01-18T19:03:59.623Z,11.70
2023-01-18T19:06:26.587Z,13.35
2023-01-18T19:08:54.989Z,9.23
2023-01-18T19:11:21.745Z,4.68
2023-01-18T19:13:49.480Z,10.82
2023-01-18T19:16:17.297Z,7.45
2023-01-18T19:18:44.214Z,9.43
2023-01-18T19:21:11.272Z,7.90
2023-01-18T19:23:38.217Z,6.95
2023-01-18T19:26:05.408Z,10.63
2023-01-18T19:28:32.205Z,10.68
2023-01-18T19:31:06.935Z,7.68
2023-01-18T19:33:34.662Z,6.70
2023-01-18T19:36:12.809Z,7.82
2023-01-18T19:38:45.746Z,7.78
2023-01-18T19:41:13.715Z,9.68
2023-01-18T19:43:41.821Z,6.00
2023-01-18T19:46:10.760Z,7.10
2023-01-18T19:48:39.176Z,11.07
2023-01-18T19:51:21.709Z,13.45
2023-01-18T19:56:15.941Z,9.25
2023-01-18T19:58:42.624Z,7.55
2023-01-18T20:01:18.110Z,9.52
2023-01-18T20:03:50.279Z,11.98
2023-01-18T20:06:19.472Z,10.68
2023-01-18T20:08:46.462Z,12.80
2023-01-18T20:11:14.794Z,10.02
2023-01-18T20:13:46.940Z,8.27
2023-01-18T20:16:13.810Z,10.57
2023-01-18T20:18:40.580Z,16.05
2023-01-18T20:21:13.877Z,8.07
2023-01-18T20:23:42.839Z,13.45
2023-01-18T20:26:14.511Z,11.30
2023-01-18T20:28:42.475Z,12.00
2023-01-18T20:31:10.303Z,8.90
2023-01-18T20:33:38.451Z,9.93
2023-01-18T20:36:06.533Z,12.05
2023-01-18T20:38:34.086Z,13.18
2023-01-18T20:41:01.322Z,13.00
2023-01-18T20:43:28.060Z,13.18
2023-01-18T20:46:08.553Z,11.57
2023-01-18T20:48:36.422Z,9.98
2023-01-18T20:51:04.308Z,10.48
2023-01-18T20:53:32.293Z,13.75
2023-01-18T20:56:23.285Z,11.43
2023-01-18T20:58:54.577Z,13.30
2023-01-18T21:01:21.450Z,11.20
2023-01-18T21:03:54.112Z,12.77
2023-01-18T21:06:20.862Z,11.73
2023-01-18T21:08:47.594Z,10.18
2023-01-18T21:11:16.812Z,14.23
2023-01-18T21:13:44.173Z,13.55
2023-01-18T21:16:10.984Z,13.05
2023-01-18T21:18:39.446Z,10.95
2023-01-18T21:21:06.670Z,14.25
2023-01-18T21:23:39.536Z,12.18
2023-01-18T21:26:11.542Z,12.10
2023-01-18T21:28:38.495Z,11.20
2023-01-18T21:31:06.160Z,13.00
2023-01-18T21:33:33.888Z,12.05
2023-01-18T21:36:09.099Z,8.77
2023-01-18T21:38:36.291Z,8.98
2023-01-18T21:41:24.165Z,14.15
2023-01-18T21:44:11.534Z,8.98
2023-01-18T21:46:44.119Z,14.75
2023-01-18T21:49:42.917Z,16.23
2023-01-18T21:52:32.598Z,15.43
2023-01-18T21:54:59.331Z,15.60
2023-01-18T21:57:26.028Z,12.02
2023-01-18T21:59:52.822Z,11.98
2023-01-18T22:02:19.930Z,16.02
2023-01-18T22:05:03.592Z,11.85
2023-01-18T22:07:33.818Z,12.18
2023-01-18T22:10:06.527Z,10.48
2023-01-18T22:12:35.563Z,8.15
2023-01-18T22:15:04.429Z,12.63
2023-01-18T22:17:31.450Z,11.07
2023-01-18T22:19:58.168Z,9.07
2023-01-18T22:22:24.969Z,5.47
2023-01-18T22:24:51.785Z,6.88
2023-01-18T22:27:18.586Z,5.07
2023-01-18T22:29:45.331Z,5.90
2023-01-18T22:32:12.059Z,7.60
2023-01-18T22:34:38.925Z,7.72
2023-01-18T22:37:05.903Z,6.43
2023-01-18T22:39:32.928Z,9.45
2023-01-18T22:41:59.704Z,8.02
2023-01-18T22:44:26.601Z,7.20
2023-01-18T22:46:53.436Z,9.57
2023-01-18T22:49:20.189Z,7.70
2023-01-18T22:51:49.823Z,9.43
2023-01-18T22:54:16.694Z,11.10
2023-01-18T22:56:43.507Z,14.05
2023-01-18T22:59:12.527Z,12.45
2023-01-18T23:01:39.506Z,11.48
2023-01-18T23:04:06.333Z,13.20
2023-01-18T23:06:45.697Z,12.80
2023-01-18T23:09:14.634Z,11.45
2023-01-18T23:11:41.888Z,13.40
2023-01-18T23:14:27.628Z,16.95
2023-01-18T23:17:13.216Z,13.52
2023-01-18T23:19:40.106Z,18.98
2023-01-18T23:22:07.537Z,23.02
2023-01-18T23:24:35.930Z,20.20
2023-01-18T23:27:04.122Z,21.52
2023-01-18T23:29:30.954Z,24.65
2023-01-18T23:31:58.454Z,19.95
2023-01-18T23:34:25.893Z,18.65
2023-01-18T23:36:53.166Z,24.05
2023-01-18T23:39:38.483Z,21.45
2023-01-18T23:42:23.767Z,20.58
2023-01-18T23:45:09.054Z,20.13
2023-01-18T23:47:55.143Z,24.45
2023-01-18T23:50:40.425Z,24.35
2023-01-18T23:53:30.893Z,22.90
2023-01-18T23:55:57.792Z,16.98
2023-01-18T23:58:24.894Z,23.08
